Time;durP1;ratioP1;P1;durP2;ratioP2;P2;SDS_P1;SDS_P2;PMS_P1;PMS_P2;Temp;Humidity;BMP_temperature;BMP_pressure;BME280_temperature;BME280_humidity;BME280_pressure;Samples;Min_cycle;Max_cycle;Signal;HPM_P1;HPM_P2
2022/04/10 00:00:58;;;;;;;17.80;9.02;;;;;;;2.66;79.47;101831.50;5021895;28;20184;-75
2022/04/10 00:03:24;;;;;;;23.33;9.60;;;;;;;2.67;79.04;101828.16;5016887;28;20053;-75
2022/04/10 00:05:51;;;;;;;19.38;9.90;;;;;;;2.65;79.12;101830.63;5017715;28;20038;-75
2022/04/10 00:08:16;;;;;;;17.88;9.70;;;;;;;2.63;78.85;101828.72;5017196;28;20041;-75
2022/04/10 00:10:42;;;;;;;20.60;9.63;;;;;;;2.62;79.38;101830.38;5024696;28;20021;-75
2022/04/10 00:13:07;;;;;;;19.73;9.80;;;;;;;2.62;78.80;101835.50;5022284;28;20030;-75
2022/04/10 00:15:33;;;;;;;20.98;9.90;;;;;;;2.60;79.29;101831.94;5017603;28;20412;-75
2022/04/10 00:17:58;;;;;;;18.80;9.20;;;;;;;2.57;79.25;101827.47;5021140;28;20177;-75
2022/04/10 00:20:24;;;;;;;17.30;9.13;;;;;;;2.55;79.60;101834.19;5015475;28;20037;-75
2022/04/10 00:22:49;;;;;;;19.77;9.75;;;;;;;2.52;79.42;101831.41;5014923;28;20026;-75
2022/04/10 00:25:17;;;;;;;21.58;9.38;;;;;;;2.52;79.80;101830.50;5014037;28;20014;-75
2022/04/10 00:27:43;;;;;;;17.63;9.40;;;;;;;2.50;79.32;101827.81;5016901;28;20049;-75
2022/04/10 00:30:10;;;;;;;17.00;9.15;;;;;;;2.47;80.02;101825.03;5016244;28;20010;-75
2022/04/10 00:32:36;;;;;;;19.88;9.77;;;;;;;2.47;79.65;101832.75;5019502;28;20044;-75
2022/04/10 00:35:01;;;;;;;19.13;9.55;;;;;;;2.45;80.05;101831.75;5020349;28;20017;-75
2022/04/10 00:37:26;;;;;;;19.77;10.13;;;;;;;2.46;79.69;101833.50;5013739;28;20026;-75
2022/04/10 00:39:52;;;;;;;20.77;10.07;;;;;;;2.45;79.32;101826.59;5013827;28;20025;-75
2022/04/10 00:42:18;;;;;;;18.90;9.57;;;;;;;2.46;79.60;101817.19;5020638;28;20319;-75
2022/04/10 00:44:43;;;;;;;22.13;9.73;;;;;;;2.45;79.79;101816.31;5016161;28;20052;-75
2022/04/10 00:47:11;;;;;;;19.08;9.15;;;;;;;2.45;79.95;101824.03;5015994;28;20045;-75
2022/04/10 00:49:37;;;;;;;21.80;9.52;;;;;;;2.44;79.73;101819.66;5013575;28;20022;-75
2022/04/10 00:52:06;;;;;;;26.80;10.55;;;;;;;2.43;80.22;101818.78;5018799;28;20036;-75
2022/04/10 00:54:33;;;;;;;21.02;10.65;;;;;;;2.43;79.93;101815.28;5008493;28;20089;-75
2022/04/10 00:57:00;;;;;;;19.20;10.30;;;;;;;2.41;79.78;101824.59;5011160;28;20268;-75
2022/04/10 00:59:26;;;;;;;22.55;11.45;;;;;;;2.37;80.38;101823.47;5016682;28;20307;-75
2022/04/10 01:01:52;;;;;;;21.17;10.95;;;;;;;2.37;80.54;101817.44;5022147;28;20021;-75
2022/04/10 01:04:17;;;;;;;23.40;11.50;;;;;;;2.35;80.36;101814.75;5011462;28;20034;-75
2022/04/10 01:06:43;;;;;;;22.52;11.23;;;;;;;2.34;79.83;101817.22;5013519;28;20013;-75
2022/04/10 01:09:09;;;;;;;24.63;11.73;;;;;;;2.31;80.62;101817.00;5018609;28;20268;-75
2022/04/10 01:11:35;;;;;;;24.58;12.15;;;;;;;2.28;80.97;101815.09;5018081;28;20092;-75
2022/04/10 01:14:04;;;;;;;23.85;11.93;;;;;;;2.26;80.89;101819.25;5017573;28;20169;-75
2022/04/10 01:16:30;;;;;;;22.02;11.77;;;;;;;2.22;81.37;101817.22;5022170;28;20315;-75
2022/04/10 01:18:56;;;;;;;25.55;12.65;;;;;;;2.21;81.29;101818.88;5019113;28;20041;-75
2022/04/10 01:21:24;;;;;;;23.65;12.50;;;;;;;2.19;81.68;101820.44;5016193;28;20041;-75
2022/04/10 01:23:53;;;;;;;27.45;12.88;;;;;;;2.19;81.58;101817.88;5011430;28;20029;-75
2022/04/10 01:26:20;;;;;;;21.88;13.00;;;;;;;2.24;81.45;101820.78;5019535;28;20025;-75
2022/04/10 01:28:59;;;;;;;28.15;13.55;;;;;;;2.25;81.78;101815.75;5008172;28;20019;-75
2022/04/10 01:31:26;;;;;;;24.08;13.48;;;;;;;2.25;81.77;101815.75;5021015;28;20028;-75
2022/04/10 01:33:54;;;;;;;30.13;14.57;;;;;;;2.25;82.17;101818.31;5017435;28;20311;-75
2022/04/10 01:36:23;;;;;;;27.55;14.30;;;;;;;2.25;81.21;101830.28;5013077;28;20409;-76
2022/04/10 01:38:50;;;;;;;26.60;13.90;;;;;;;2.26;81.62;101825.25;5012048;28;20021;-76
2022/04/10 01:41:16;;;;;;;27.30;14.20;;;;;;;2.29;82.01;101816.88;5012046;28;20303;-76
2022/04/10 01:43:48;;;;;;;26.73;14.20;;;;;;;2.29;81.52;101816.88;5012761;28;20045;-76
2022/04/10 01:46:14;;;;;;;24.45;14.18;;;;;;;2.29;81.20;101824.59;5012098;28;20268;-76
2022/04/10 01:48:40;;;;;;;26.70;13.93;;;;;;;2.28;80.73;101824.50;5017713;28;20014;-76
2022/04/10 01:51:07;;;;;;;25.45;14.38;;;;;;;2.28;80.75;101827.94;5021998;28;20029;-76
2022/04/10 01:53:32;;;;;;;26.10;14.13;;;;;;;2.29;81.10;101823.69;5012734;28;20253;-76
2022/04/10 01:55:57;;;;;;;23.55;13.80;;;;;;;2.28;80.76;101827.06;5018619;28;20028;-76
2022/04/10 01:58:23;;;;;;;27.30;14.90;;;;;;;2.25;81.32;101828.59;5022911;28;20022;-76
2022/04/10 02:00:48;;;;;;;29.60;15.75;;;;;;;2.26;81.98;101840.69;5014785;28;20022;-76
2022/04/10 02:03:13;;;;;;;26.48;15.48;;;;;;;2.27;81.54;101828.72;5018327;28;20046;-76
2022/04/10 02:05:38;;;;;;;28.55;15.15;;;;;;;2.25;80.59;101845.72;5015205;28;20022;-76
2022/04/10 02:08:04;;;;;;;29.73;16.52;;;;;;;2.23;81.10;101850.75;5021077;28;20020;-76
2022/04/10 02:10:29;;;;;;;27.83;16.27;;;;;;;2.22;81.30;101846.38;5019583;28;20041;-77
2022/04/10 02:12:54;;;;;;;30.50;16.02;;;;;;;2.21;81.84;101846.28;5021474;28;20052;-76
2022/04/10 02:15:20;;;;;;;26.13;16.48;;;;;;;2.23;82.64;101848.19;5017496;28;20268;-76
2022/04/10 02:17:45;;;;;;;28.02;16.40;;;;;;;2.24;82.58;101841.34;5019760;28;20045;-76
2022/04/10 02:20:10;;;;;;;29.75;16.05;;;;;;;2.23;82.36;101840.47;5020266;28;20056;-76
2022/04/10 02:22:36;;;;;;;29.08;16.60;;;;;;;2.24;81.98;101843.94;5023162;28;20069;-76
2022/04/10 02:25:02;;;;;;;28.50;15.90;;;;;;;2.24;81.89;101841.34;5021257;28;20014;-76
2022/04/10 02:27:28;;;;;;;29.52;16.48;;;;;;;2.22;82.23;101843.81;5021082;28;20089;-76
2022/04/10 02:29:53;;;;;;;34.58;17.15;;;;;;;2.21;82.65;101839.44;5011866;28;20100;-76
2022/04/10 02:32:18;;;;;;;31.88;16.67;;;;;;;2.20;82.05;101845.41;5014543;28;20130;-76
2022/04/10 02:34:43;;;;;;;26.67;16.67;;;;;;;2.19;82.27;101845.28;5011918;28;20018;-76
2022/04/10 02:37:09;;;;;;;29.50;16.77;;;;;;;2.15;81.52;101848.41;5015361;28;20049;-75
2022/04/10 02:39:34;;;;;;;30.83;17.10;;;;;;;2.13;81.80;101843.16;5012300;28;20025;-75
2022/04/10 02:41:59;;;;;;;29.83;17.05;;;;;;;2.12;82.41;101843.03;5018904;28;20022;-75
2022/04/10 02:44:25;;;;;;;28.17;16.63;;;;;;;2.09;81.67;101843.69;5012571;28;20014;-75
2022/04/10 02:46:50;;;;;;;30.63;17.20;;;;;;;2.06;81.65;101849.50;5023378;28;20096;-75
2022/04/10 02:49:15;;;;;;;32.65;17.42;;;;;;;2.03;82.80;101854.41;5021140;28;20064;-75
2022/04/10 02:51:40;;;;;;;30.80;17.80;;;;;;;2.00;82.61;101859.34;5018240;28;20270;-75
2022/04/10 02:54:06;;;;;;;28.70;17.02;;;;;;;1.99;81.91;101856.66;5013025;28;20125;-75
2022/04/10 02:56:31;;;;;;;35.85;18.08;;;;;;;1.96;82.30;101859.88;5010427;28;20039;-75
2022/04/10 02:58:56;;;;;;;36.63;17.02;;;;;;;1.90;83.31;101857.75;5017528;28;20045;-75
2022/04/10 03:01:21;;;;;;;34.22;17.83;;;;;;;1.87;82.67;101860.09;5022900;28;20025;-75
2022/04/10 03:03:47;;;;;;;29.05;17.13;;;;;;;1.82;82.42;101858.84;5021589;28;20165;-75
2022/04/10 03:06:12;;;;;;;32.35;18.38;;;;;;;1.79;82.62;101860.28;5017989;28;20034;-75
2022/04/10 03:08:37;;;;;;;33.72;17.58;;;;;;;1.73;82.75;101863.28;5012834;28;20160;-75
2022/04/10 03:11:03;;;;;;;31.15;17.40;;;;;;;1.71;82.44;101862.28;5013023;28;20173;-75
2022/04/10 03:13:29;;;;;;;30.17;17.20;;;;;;;1.69;82.11;101864.72;5012858;28;20284;-75
2022/04/10 03:15:54;;;;;;;28.02;17.17;;;;;;;1.68;82.66;101870.66;5019438;28;20021;-75
2022/04/10 03:18:20;;;;;;;32.83;19.00;;;;;;;1.65;82.65;101866.94;5014507;28;20284;-75
2022/04/10 03:20:45;;;;;;;32.35;18.40;;;;;;;1.63;83.38;101871.09;5021122;28;20153;-75
2022/04/10 03:23:10;;;;;;;32.80;19.30;;;;;;;1.63;83.48;101865.94;5016538;28;20207;-75
2022/04/10 03:25:36;;;;;;;33.75;18.92;;;;;;;1.64;83.27;101862.63;5017044;28;20029;-75
2022/04/10 03:28:01;;;;;;;32.90;18.67;;;;;;;1.64;83.29;101865.19;5017237;28;20080;-75
2022/04/10 03:30:26;;;;;;;33.70;18.33;;;;;;;1.61;83.38;101870.97;5022478;28;20037;-75
2022/04/10 03:32:52;;;;;;;34.30;18.33;;;;;;;1.59;83.55;101879.34;5024818;28;20040;-75
2022/04/10 03:35:17;;;;;;;33.13;18.50;;;;;;;1.58;82.80;101877.53;5019190;28;20276;-75
2022/04/10 03:37:43;;;;;;;27.60;17.00;;;;;;;1.54;82.15;101882.44;5021146;28;20026;-75
2022/04/10 03:40:09;;;;;;;31.55;18.20;;;;;;;1.47;81.86;101877.59;5016690;28;20261;-75
2022/04/10 03:42:39;;;;;;;29.15;17.73;;;;;;;1.39;82.57;101879.59;5018853;28;20216;-75
2022/04/10 03:45:06;;;;;;;32.10;17.77;;;;;;;1.34;82.92;101874.88;5021088;28;20018;-75
2022/04/10 03:47:32;;;;;;;28.20;17.13;;;;;;;1.29;82.75;101871.97;5021607;28;20036;-75
2022/04/10 03:49:57;;;;;;;29.27;17.50;;;;;;;1.25;83.30;101877.63;5020295;28;20014;-75
2022/04/10 03:52:22;;;;;;;31.52;18.88;;;;;;;1.22;83.28;101879.97;5019221;28;20021;-75
2022/04/10 03:54:47;;;;;;;29.67;18.17;;;;;;;1.23;83.76;101876.59;5017854;28;20014;-75
2022/04/10 03:57:13;;;;;;;30.70;18.13;;;;;;;1.23;83.20;101884.28;5023497;28;20034;-75
2022/04/10 03:59:38;;;;;;;29.85;17.88;;;;;;;1.20;83.13;101882.41;5017084;28;20014;-75
2022/04/10 04:02:03;;;;;;;34.05;18.33;;;;;;;1.20;83.45;101890.09;5021140;28;20022;-75
2022/04/10 04:04:29;;;;;;;28.73;17.27;;;;;;;1.21;83.68;101884.19;5013704;28;20291;-75
2022/04/10 04:06:54;;;;;;;32.35;17.92;;;;;;;1.27;83.63;101885.44;5024920;28;20021;-75
2022/04/10 04:09:19;;;;;;;29.38;17.75;;;;;;;1.29;83.15;101894.16;5018580;28;20087;-75
2022/04/10 04:11:45;;;;;;;26.30;16.00;;;;;;;1.25;82.37;101894.72;5019331;28;20022;-75
2022/04/10 04:14:12;;;;;;;28.88;16.52;;;;;;;1.21;83.00;101891.88;5011710;28;20015;-75
2022/04/10 04:16:37;;;;;;;30.25;17.25;;;;;;;1.21;83.36;101894.44;5022380;28;20244;-75
2022/04/10 04:19:02;;;;;;;30.92;16.42;;;;;;;1.21;83.45;101894.44;5021681;28;20400;-75
2022/04/10 04:21:28;;;;;;;32.90;18.60;;;;;;;1.20;82.99;101892.69;5018067;28;20383;-75
2022/04/10 04:23:54;;;;;;;27.08;16.83;;;;;;;1.19;83.14;101900.25;5020165;28;20034;-75
2022/04/10 04:26:19;;;;;;;30.88;16.90;;;;;;;1.17;83.29;101902.72;5016460;28;20068;-75
2022/04/10 04:28:44;;;;;;;30.60;17.88;;;;;;;1.12;83.09;101891.16;5021886;28;20025;-75
2022/04/10 04:31:10;;;;;;;29.60;16.85;;;;;;;1.10;83.03;101896.94;5018196;28;20028;-75
2022/04/10 04:33:35;;;;;;;35.45;17.27;;;;;;;1.09;83.54;101901.19;5019714;28;20018;-75
2022/04/10 04:36:00;;;;;;;28.42;17.02;;;;;;;1.09;83.07;101903.75;5018446;28;20029;-75
2022/04/10 04:38:25;;;;;;;31.15;16.40;;;;;;;1.09;84.53;101903.75;5017675;28;20018;-75
2022/04/10 04:40:51;;;;;;;28.83;16.67;;;;;;;1.11;84.36;101907.34;5018110;28;20307;-75
2022/04/10 04:43:16;;;;;;;27.23;17.27;;;;;;;1.13;84.46;101907.44;5016704;28;20057;-75
2022/04/10 04:45:41;;;;;;;30.55;16.85;;;;;;;1.18;84.00;101906.16;5013697;28;20251;-75
2022/04/10 04:48:07;;;;;;;29.65;16.67;;;;;;;1.18;84.08;101909.59;5018636;28;20033;-75
2022/04/10 04:50:32;;;;;;;33.20;17.15;;;;;;;1.17;84.10;101907.84;5015504;28;20049;-75
2022/04/10 04:52:57;;;;;;;27.35;15.68;;;;;;;1.18;83.76;101909.59;5013716;28;20093;-75
2022/04/10 04:55:23;;;;;;;30.75;15.43;;;;;;;1.17;83.68;101912.06;5016350;28;20021;-75
2022/04/10 04:57:48;;;;;;;29.17;15.52;;;;;;;1.15;82.77;101914.50;5021028;28;20264;-75
2022/04/10 05:00:14;;;;;;;26.02;15.73;;;;;;;1.13;82.62;101921.22;5020007;28;20022;-75
2022/04/10 05:02:39;;;;;;;28.08;15.30;;;;;;;1.12;82.09;101909.13;5010738;28;20067;-75
2022/04/10 05:05:05;;;;;;;26.45;15.32;;;;;;;1.11;82.60;101914.16;5007612;28;20022;-75
2022/04/10 05:07:30;;;;;;;26.38;15.30;;;;;;;1.10;82.90;101915.84;5015495;28;20045;-76
2022/04/10 05:09:55;;;;;;;26.27;15.68;;;;;;;1.11;82.83;101930.44;5010880;28;20021;-76
2022/04/10 05:12:20;;;;;;;26.08;15.40;;;;;;;1.12;83.26;101918.53;5019925;28;20184;-76
2022/04/10 05:14:46;;;;;;;27.42;14.73;;;;;;;1.12;82.75;101928.78;5019478;28;20184;-76
2022/04/10 05:17:11;;;;;;;29.17;15.45;;;;;;;1.13;82.59;101928.00;5016478;28;20026;-76
2022/04/10 05:19:37;;;;;;;28.08;14.27;;;;;;;1.13;82.64;101934.03;5022983;28;20044;-76
2022/04/10 05:22:02;;;;;;;27.65;15.15;;;;;;;1.15;83.05;101934.16;5013597;28;20021;-76
2022/04/10 05:24:28;;;;;;;28.58;15.00;;;;;;;1.16;82.61;101939.41;5017275;28;20088;-76
2022/04/10 05:26:53;;;;;;;28.35;15.02;;;;;;;1.18;83.67;101936.97;5015567;28;20021;-76
2022/04/10 05:29:18;;;;;;;28.60;15.13;;;;;;;1.19;84.72;101942.22;5016041;28;20028;-76
2022/04/10 05:31:43;;;;;;;26.20;14.63;;;;;;;1.21;84.49;101943.22;5020670;28;20022;-76
2022/04/10 05:34:09;;;;;;;26.25;14.73;;;;;;;1.20;83.82;101946.59;5015567;28;20207;-76
2022/04/10 05:36:34;;;;;;;26.40;15.02;;;;;;;1.21;84.40;101948.34;5015393;28;20176;-76
2022/04/10 05:39:00;;;;;;;24.45;14.43;;;;;;;1.25;83.91;101951.19;5015090;28;20130;-75
2022/04/10 05:41:25;;;;;;;28.67;15.63;;;;;;;1.25;84.40;101953.75;5018890;28;20025;-75
2022/04/10 05:43:50;;;;;;;25.25;15.95;;;;;;;1.22;84.41;101954.41;5019488;28;20018;-75
2022/04/10 05:46:15;;;;;;;25.25;14.27;;;;;;;1.20;85.09;101954.28;5014190;28;20021;-75
2022/04/10 05:48:41;;;;;;;23.50;14.68;;;;;;;1.25;84.96;101962.34;5016088;28;20144;-75
2022/04/10 05:51:07;;;;;;;24.75;14.82;;;;;;;1.27;84.86;101965.91;5020206;28;20203;-75
2022/04/10 05:53:32;;;;;;;25.92;15.63;;;;;;;1.29;84.56;101972.09;5020004;28;20073;-75
2022/04/10 05:55:57;;;;;;;27.17;14.98;;;;;;;1.34;85.39;101977.59;5021854;28;20029;-75
2022/04/10 05:58:23;;;;;;;28.40;14.95;;;;;;;1.40;85.78;101978.06;5022113;28;20280;-75
2022/04/10 06:00:48;;;;;;;25.27;15.02;;;;;;;1.48;85.66;101976.13;5020039;28;20084;-75
2022/04/10 06:03:13;;;;;;;29.20;15.43;;;;;;;1.54;86.02;101981.72;5021365;28;20013;-75
2022/04/10 06:05:39;;;;;;;30.10;14.93;;;;;;;1.59;85.84;101989.78;5013739;28;20025;-75
2022/04/10 06:08:04;;;;;;;26.75;14.65;;;;;;;1.61;85.77;101996.84;5016056;28;20073;-76
2022/04/10 06:10:30;;;;;;;27.88;13.27;;;;;;;1.67;85.57;101997.31;5013748;28;20072;-76
2022/04/10 06:13:05;;;;;;;27.20;13.43;;;;;;;1.73;85.76;101994.34;5012094;28;20026;-76
2022/04/10 06:15:30;;;;;;;27.77;14.27;;;;;;;1.79;85.14;101999.94;5018554;28;20022;-76
2022/04/10 06:17:56;;;;;;;25.77;12.88;;;;;;;1.85;85.21;101999.53;5013072;28;20030;-76
2022/04/10 06:20:21;;;;;;;25.42;12.32;;;;;;;1.92;85.04;102001.78;5018295;28;20092;-76
2022/04/10 06:22:47;;;;;;;24.40;12.43;;;;;;;2.00;85.29;102007.50;5013449;28;20399;-76
2022/04/10 06:25:12;;;;;;;27.63;12.63;;;;;;;2.07;85.40;102007.19;5020037;28;20032;-76
2022/04/10 06:27:37;;;;;;;25.23;12.10;;;;;;;2.15;85.07;102008.69;5014848;28;20036;-76
2022/04/10 06:30:03;;;;;;;28.30;12.82;;;;;;;2.22;84.50;102012.66;5014269;28;20048;-76
2022/04/10 06:32:28;;;;;;;23.05;11.82;;;;;;;2.32;85.14;102016.78;5016316;28;20026;-76
2022/04/10 06:34:54;;;;;;;25.02;12.68;;;;;;;2.40;84.79;102018.28;5014938;28;20045;-76
2022/04/10 06:37:19;;;;;;;28.95;13.10;;;;;;;2.51;85.04;102022.56;5012502;28;20030;-74
2022/04/10 06:39:44;;;;;;;28.17;12.18;;;;;;;2.62;84.72;102020.78;5021404;28;20344;-74
2022/04/10 06:42:10;;;;;;;25.13;12.30;;;;;;;2.75;84.76;102025.16;5018699;28;20030;-75
2022/04/10 06:44:37;;;;;;;27.75;12.43;;;;;;;2.87;84.38;102033.81;5020200;28;20029;-75
2022/04/10 06:47:03;;;;;;;31.10;12.65;;;;;;;3.04;83.97;102029.00;5016503;28;20029;-75
2022/04/10 06:49:28;;;;;;;26.27;12.13;;;;;;;3.24;84.13;102031.31;5017392;28;20030;-75
2022/04/10 06:51:53;;;;;;;27.10;13.23;;;;;;;4.98;81.36;102034.66;5012289;28;20025;-75
2022/04/10 06:54:19;;;;;;;28.27;13.10;;;;;;;8.57;69.25;102030.41;5010918;28;20029;-75
2022/04/10 06:56:44;;;;;;;23.48;11.23;;;;;;;12.18;58.25;102032.19;5019017;28;20217;-75
2022/04/10 06:59:10;;;;;;;19.77;9.93;;;;;;;14.94;48.90;102018.72;5012780;28;20117;-76
2022/04/10 07:01:35;;;;;;;22.52;10.35;;;;;;;17.13;42.74;102020.50;5013229;28;20276;-75
2022/04/10 07:04:01;;;;;;;23.02;10.38;;;;;;;18.98;38.61;102020.91;5017154;28;20330;-76
2022/04/10 07:06:26;;;;;;;27.75;12.02;;;;;;;20.03;35.23;102030.31;5023074;28;20315;-75
2022/04/10 07:08:51;;;;;;;29.27;12.48;;;;;;;19.06;36.01;102027.09;5019802;28;20069;-75
2022/04/10 07:11:17;;;;;;;20.75;10.52;;;;;;;16.76;38.91;102037.41;5023093;28;20296;-76
2022/04/10 07:13:42;;;;;;;17.10;8.52;;;;;;;14.65;44.17;102036.34;5016382;28;20165;-75
2022/04/10 07:16:09;;;;;;;14.20;8.18;;;;;;;12.82;48.31;102037.88;5019833;28;20200;-75
2022/04/10 07:18:34;;;;;;;14.63;7.30;;;;;;;11.44;52.55;102037.19;5023072;28;20064;-75
2022/04/10 07:20:59;;;;;;;13.43;6.90;;;;;;;10.43;56.28;102034.81;5018227;28;20093;-75
2022/04/10 07:23:45;;;;;;;10.30;5.88;;;;;;;9.69;59.01;102041.84;5014067;28;20172;-75
2022/04/10 07:26:15;;;;;;;10.90;5.60;;;;;;;9.06;60.66;102042.34;5020868;28;20033;-75
2022/04/10 07:28:41;;;;;;;13.10;5.32;;;;;;;8.63;62.51;102041.13;5022141;28;20059;-76
2022/04/10 07:31:08;;;;;;;10.10;5.68;;;;;;;8.32;63.60;102043.81;5021398;28;20026;-76
2022/04/10 07:33:34;;;;;;;12.63;5.93;;;;;;;8.05;65.20;102051.91;5023440;28;20032;-76
2022/04/10 07:35:59;;;;;;;9.20;5.32;;;;;;;7.83;65.88;102050.78;5020991;28;20135;-76
2022/04/10 07:38:25;;;;;;;9.45;4.85;;;;;;;7.68;66.91;102052.53;5020512;28;20216;-75
2022/04/10 07:40:50;;;;;;;11.52;4.97;;;;;;;7.52;66.69;102055.97;5021043;28;20033;-76
2022/04/10 07:43:16;;;;;;;11.05;5.28;;;;;;;7.42;67.84;102062.34;5018525;28;20168;-76
2022/04/10 07:48:25;;;;;;;9.98;4.78;;;;;;;7.32;69.02;102063.50;5026071;28;20021;-76
2022/04/10 07:50:51;;;;;;;8.48;4.68;;;;;;;7.31;69.85;102072.13;5020961;28;20025;-76
2022/04/10 07:53:16;;;;;;;10.15;4.55;;;;;;;7.30;68.63;102069.44;5022301;28;20014;-76
2022/04/10 07:55:41;;;;;;;11.77;4.88;;;;;;;7.29;68.97;102083.22;5022407;28;20028;-76
2022/04/10 07:58:06;;;;;;;10.75;4.97;;;;;;;7.29;69.32;102086.69;5022427;28;20049;-76
2022/04/10 08:00:32;;;;;;;11.35;4.97;;;;;;;7.31;70.85;102079.91;5018166;28;20045;-76
2022/04/10 08:02:58;;;;;;;10.30;5.07;;;;;;;7.35;71.31;102086.13;5023684;28;20046;-76
2022/04/10 08:05:23;;;;;;;13.23;5.72;;;;;;;7.40;70.84;102094.16;5022672;28;20021;-76
2022/04/10 08:07:49;;;;;;;10.13;4.65;;;;;;;7.45;71.46;102096.22;5024313;28;20022;-76
2022/04/10 08:10:15;;;;;;;7.78;3.88;;;;;;;7.48;71.32;102096.38;5021132;28;20288;-76
2022/04/10 08:12:41;;;;;;;6.75;2.80;;;;;;;7.53;68.99;102083.72;5023993;28;20264;-76
2022/04/10 08:15:07;;;;;;;9.27;3.10;;;;;;;7.59;70.30;102090.91;5022844;28;20085;-76
2022/04/10 08:17:32;;;;;;;9.90;3.50;;;;;;;7.65;69.21;102099.06;5022372;28;20088;-76
2022/04/10 08:19:58;;;;;;;9.80;3.38;;;;;;;7.72;67.71;102098.59;5022220;28;20037;-77
2022/04/10 08:22:27;;;;;;;6.45;2.53;;;;;;;7.69;66.06;102103.63;5018962;28;20025;-76
2022/04/10 08:24:52;;;;;;;8.70;2.73;;;;;;;7.68;68.70;102103.53;5018124;28;20085;-76
2022/04/10 08:27:18;;;;;;;8.27;2.85;;;;;;;7.74;67.21;102098.69;5022172;28;20021;-76
2022/04/10 08:29:43;;;;;;;7.20;2.92;;;;;;;7.75;66.50;102103.03;5022868;28;20044;-72
2022/04/10 08:32:09;;;;;;;5.70;2.65;;;;;;;7.73;66.10;102099.47;5024300;28;20176;-72
2022/04/10 08:34:34;;;;;;;8.10;2.50;;;;;;;7.66;66.56;102111.19;5023471;28;20022;-72
2022/04/10 08:37:05;;;;;;;7.32;2.30;;;;;;;7.62;67.08;102104.06;5023704;28;20026;-72
2022/04/10 08:39:34;;;;;;;8.13;2.47;;;;;;;7.55;67.38;102107.13;5021941;28;20025;-72
2022/04/10 08:42:02;;;;;;;8.80;2.60;;;;;;;7.47;67.41;102117.97;5024086;28;20043;-72
2022/04/10 08:44:29;;;;;;;7.53;3.20;;;;;;;7.39;68.93;102126.13;5022611;28;20029;-72
2022/04/10 08:46:54;;;;;;;9.20;3.28;;;;;;;7.28;68.53;102128.97;5024731;28;20287;-72
2022/04/10 08:49:22;;;;;;;6.00;3.15;;;;;;;7.18;69.85;102130.94;5025279;28;20030;-72
2022/04/10 08:51:50;;;;;;;6.55;3.05;;;;;;;7.06;69.52;102132.00;5024627;28;20044;-72
2022/04/10 08:54:18;;;;;;;8.50;3.78;;;;;;;7.01;70.26;102137.72;5023701;28;20026;-72
2022/04/10 08:56:43;;;;;;;6.32;3.25;;;;;;;6.97;71.26;102141.84;5023451;28;20093;-72
2022/04/10 08:59:08;;;;;;;9.05;3.40;;;;;;;7.02;71.48;102135.22;5019169;28;20026;-72
2022/04/10 09:01:34;;;;;;;10.02;4.05;;;;;;;7.14;71.05;102135.94;5020551;28;20093;-72
2022/04/10 09:03:59;;;;;;;10.23;3.88;;;;;;;7.27;71.36;102132.38;5024053;28;20029;-72
2022/04/10 09:06:25;;;;;;;7.38;3.40;;;;;;;7.41;71.50;102137.47;5015776;28;20278;-72
2022/04/10 09:08:50;;;;;;;7.35;3.45;;;;;;;7.54;71.28;102136.47;5023236;28;20041;-72
2022/04/10 09:11:15;;;;;;;7.75;2.90;;;;;;;7.64;66.11;102138.75;5023482;28;20192;-72
2022/04/10 09:13:46;;;;;;;7.63;3.15;;;;;;;7.75;69.86;102140.28;5024572;28;20030;-73
2022/04/10 09:16:16;;;;;;;8.23;2.80;;;;;;;7.83;67.39;102132.91;5023279;28;20025;-73
2022/04/10 09:18:49;;;;;;;;;;;;;;;7.92;69.28;102132.50;5012689;28;20279;-72
2022/04/10 09:21:15;;;;;;;9.63;2.95;;;;;;;8.05;68.25;102124.59;5023747;28;20144;-72
2022/04/10 09:23:43;;;;;;;5.53;2.47;;;;;;;8.15;66.21;102137.28;5024014;28;20144;-72
2022/04/10 09:26:08;;;;;;;7.68;2.50;;;;;;;8.27;67.79;102129.25;5023989;28;20033;-72
2022/04/10 09:28:47;;;;;;;6.60;2.63;;;;;;;8.38;65.60;102131.53;5024170;28;20025;-72
2022/04/10 09:31:33;;;;;;;5.47;2.22;;;;;;;8.50;66.34;102133.13;5022203;28;20093;-72
2022/04/10 09:34:04;;;;;;;6.13;2.17;;;;;;;8.65;65.20;102132.13;5023392;28;20016;-72
2022/04/10 09:36:33;;;;;;;5.97;2.42;;;;;;;8.75;64.50;102126.59;5023821;28;20088;-72
2022/04/10 09:39:00;;;;;;;5.38;2.20;;;;;;;8.83;62.32;102130.47;5023694;28;20091;-72
2022/04/10 09:41:25;;;;;;;5.55;2.35;;;;;;;8.94;65.30;102132.75;5023702;28;20032;-72
2022/04/10 09:43:50;;;;;;;5.68;2.00;;;;;;;9.06;65.80;102125.56;5022213;28;20013;-72
2022/04/10 09:46:16;;;;;;;6.85;2.10;;;;;;;9.16;63.77;102133.00;5022691;28;20030;-72
2022/04/10 09:48:41;;;;;;;5.90;2.25;;;;;;;9.27;63.05;102130.03;5023895;28;20025;-72
2022/04/10 09:51:09;;;;;;;5.65;2.45;;;;;;;9.36;65.23;102128.78;5023514;28;20232;-72
2022/04/10 09:53:35;;;;;;;5.72;1.88;;;;;;;9.44;61.38;102125.69;5022247;28;20022;-72
2022/04/10 09:56:02;;;;;;;5.20;2.40;;;;;;;9.51;62.59;102131.25;5023635;28;20022;-72
2022/04/10 09:58:28;;;;;;;4.97;2.05;;;;;;;9.51;62.31;102128.63;5023571;28;20029;-72
2022/04/10 10:00:55;;;;;;;6.15;2.08;;;;;;;9.49;61.07;102127.69;5021080;28;20033;-72
2022/04/10 10:03:31;;;;;;;5.43;2.08;;;;;;;9.48;62.08;102128.50;5023616;28;20169;-72
2022/04/10 10:05:58;;;;;;;7.68;2.17;;;;;;;9.57;61.19;102123.75;5021505;28;20091;-72
2022/04/10 10:08:25;;;;;;;5.95;2.40;;;;;;;9.68;61.24;102120.78;5023992;28;20291;-72
2022/04/10 10:10:51;;;;;;;5.82;2.05;;;;;;;9.79;59.41;102118.66;5022135;28;20026;-72
2022/04/10 10:13:16;;;;;;;5.65;2.00;;;;;;;9.87;59.53;102119.94;5023200;28;20071;-72
2022/04/10 10:15:43;;;;;;;4.93;2.30;;;;;;;9.95;60.44;102120.28;5022075;28;20013;-72
2022/04/10 10:18:11;;;;;;;4.75;2.33;;;;;;;9.94;57.96;102123.72;5023241;28;20311;-73
2022/04/10 10:20:38;;;;;;;5.18;1.95;;;;;;;9.87;58.70;102120.81;5022593;28;20050;-72
2022/04/10 10:23:08;;;;;;;8.30;2.17;;;;;;;9.79;58.00;102116.97;5023942;28;20026;-72
2022/04/10 10:25:39;;;;;;;;;;;;;;;9.78;62.07;102114.31;5023322;28;20088;-72
2022/04/10 10:28:26;;;;;;;5.45;2.05;;;;;;;9.76;60.70;102119.41;5023770;28;19902;-72
2022/04/10 10:31:07;;;;;;;6.20;2.03;;;;;;;9.79;58.63;102121.28;5022757;28;20044;-72
2022/04/10 10:33:34;;;;;;;3.83;2.00;;;;;;;9.84;56.43;102110.25;5023083;28;20168;-73
2022/04/10 10:36:01;;;;;;;5.57;2.03;;;;;;;9.92;56.78;102114.13;5025759;28;20021;-72
2022/04/10 10:38:31;;;;;;;9.15;2.67;;;;;;;9.96;53.91;102107.34;5027963;28;20084;-72
2022/04/10 10:41:29;;;;;;;4.63;2.00;;;;;;;10.10;60.68;102107.97;5020094;28;20026;-72
2022/04/10 10:43:55;;;;;;;6.30;2.08;;;;;;;10.23;57.97;102105.09;5025609;28;20018;-72
2022/04/10 10:46:26;;;;;;;5.68;2.05;;;;;;;10.33;56.95;102108.16;5026997;28;20045;-73
2022/04/10 10:49:16;;;;;;;7.55;2.08;;;;;;;10.42;58.63;102111.19;5026551;28;20028;-72
2022/04/10 10:51:52;;;;;;;5.43;2.42;;;;;;;10.44;58.07;102106.91;5026619;28;20053;-73
2022/04/10 10:54:32;;;;;;;5.50;1.88;;;;;;;10.46;55.55;102113.09;5026943;28;20013;-72
2022/04/10 10:56:58;;;;;;;6.35;2.47;;;;;;;10.50;56.70;102108.91;5026649;28;20025;-72
2022/04/10 10:59:30;;;;;;;6.97;2.42;;;;;;;10.61;59.28;102113.75;5027628;28;20014;-72
2022/04/10 11:02:01;;;;;;;5.40;2.15;;;;;;;10.73;59.38;102113.44;5026123;28;20041;-72
2022/04/10 11:04:30;;;;;;;5.70;2.33;;;;;;;10.83;53.27;102113.81;5025711;28;20064;-72
2022/04/10 11:07:14;;;;;;;5.10;1.98;;;;;;;10.93;57.01;102111.69;5024838;28;20081;-72
2022/04/10 11:10:00;;;;;;;6.05;2.22;;;;;;;10.97;55.63;102112.69;5027360;28;20177;-72
2022/04/10 11:12:47;;;;;;;5.47;2.40;;;;;;;10.89;57.25;102108.84;5024606;28;20025;-72
2022/04/10 11:15:12;;;;;;;5.63;2.28;;;;;;;10.84;56.42;102107.78;5026580;28;20097;-72
2022/04/10 11:17:39;;;;;;;6.82;2.28;;;;;;;10.83;52.35;102106.88;5026248;28;20029;-70
2022/04/10 11:20:08;;;;;;;5.30;2.03;;;;;;;10.82;51.11;102102.50;5025321;28;20044;-70
2022/04/10 11:22:35;;;;;;;5.60;2.10;;;;;;;10.89;55.69;102112.38;5026100;28;20097;-70